createdAt,value
2023-01-07T00:01:29.859Z,72.70
2023-01-07T00:04:02.022Z,72.60
2023-01-07T00:06:33.311Z,72.70
2023-01-07T00:09:03.482Z,72.70
2023-01-07T00:11:34.385Z,72.70
2023-01-07T00:14:04.860Z,72.80
2023-01-07T00:16:36.315Z,72.70
2023-01-07T00:19:07.791Z,72.70
2023-01-07T00:21:37.239Z,72.70
2023-01-07T00:24:08.423Z,72.80
2023-01-07T00:26:39.542Z,72.70
2023-01-07T00:29:09.726Z,72.80
2023-01-07T00:31:43.386Z,72.90
2023-01-07T00:34:13.506Z,73.10
2023-01-07T00:36:44.830Z,73.20
2023-01-07T00:39:16.615Z,73.20
2023-01-07T00:42:07.389Z,73.00
2023-01-07T00:44:38.201Z,73.00
2023-01-07T00:47:09.117Z,73.10
2023-01-07T00:49:38.449Z,73.00
2023-01-07T00:52:07.966Z,73.10
2023-01-07T00:54:37.441Z,73.00
2023-01-07T00:57:06.709Z,73.00
2023-01-07T00:59:36.282Z,73.00
2023-01-07T01:02:05.716Z,72.90
2023-01-07T01:04:37.021Z,72.60
2023-01-07T01:07:06.687Z,72.10
2023-01-07T01:09:36.051Z,71.60
2023-01-07T01:12:05.764Z,71.30
2023-01-07T01:14:34.755Z,71.00
2023-01-07T01:17:04.033Z,70.90
2023-01-07T01:19:34.806Z,70.80
2023-01-07T01:22:04.501Z,70.90
2023-01-07T01:24:34.173Z,71.00
2023-01-07T01:27:03.632Z,71.30
2023-01-07T01:29:32.581Z,71.30
2023-01-07T01:32:01.903Z,71.20
2023-01-07T01:34:30.331Z,71.30
2023-01-07T01:36:59.883Z,71.40
2023-01-07T01:39:28.052Z,71.60
2023-01-07T01:41:56.329Z,71.80
2023-01-07T01:44:41.063Z,72.00
2023-01-07T01:47:15.540Z,72.00
2023-01-07T01:49:50.975Z,72.20
2023-01-07T01:52:24.615Z,72.30
2023-01-07T01:54:58.023Z,72.40
2023-01-07T01:57:28.927Z,72.50
2023-01-07T01:59:58.303Z,72.50
2023-01-07T02:02:30.491Z,72.40
2023-01-07T02:04:59.409Z,72.50
2023-01-07T02:07:29.000Z,72.30
2023-01-07T02:10:01.481Z,72.20
2023-01-07T02:12:47.791Z,72.20
2023-01-07T02:15:19.754Z,72.20
2023-01-07T02:18:21.315Z,72.20
2023-01-07T02:21:02.202Z,72.30
2023-01-07T02:24:27.779Z,72.40
2023-01-07T02:27:26.002Z,72.40
2023-01-07T02:30:22.692Z,72.50
2023-01-07T02:33:20.189Z,72.40
2023-01-07T02:36:07.851Z,72.60
2023-01-07T02:38:43.988Z,72.60
2023-01-07T02:41:20.912Z,72.80
2023-01-07T02:43:59.089Z,72.90
2023-01-07T02:46:31.771Z,72.90
2023-01-07T02:49:05.471Z,73.00
2023-01-07T02:51:35.625Z,73.00
2023-01-07T02:54:05.003Z,73.10
2023-01-07T02:56:40.096Z,73.20
2023-01-07T02:59:32.584Z,73.20
2023-01-07T03:02:18.967Z,73.40
2023-01-07T03:05:07.680Z,73.40
2023-01-07T03:07:47.038Z,73.50
2023-01-07T03:10:25.903Z,73.60
2023-01-07T03:12:59.502Z,73.70
2023-01-07T03:15:30.884Z,73.70
2023-01-07T03:18:03.969Z,73.80
2023-01-07T03:20:37.062Z,73.90
2023-01-07T03:23:09.044Z,74.00
2023-01-07T03:25:41.556Z,74.00
2023-01-07T03:28:12.061Z,74.10
2023-01-07T03:30:40.589Z,74.10
2023-01-07T03:33:13.496Z,74.10
2023-01-07T03:35:46.691Z,74.10
2023-01-07T03:38:16.232Z,74.00
2023-01-07T03:40:44.509Z,74.00
2023-01-07T03:43:15.193Z,74.00
2023-01-07T03:45:44.283Z,74.00
2023-01-07T03:48:12.657Z,74.00
2023-01-07T03:50:42.252Z,74.00
2023-01-07T03:53:10.437Z,74.00
2023-01-07T03:55:38.834Z,74.00
2023-01-07T03:58:07.124Z,73.90
2023-01-07T04:00:36.771Z,74.00
2023-01-07T04:03:06.253Z,74.10
2023-01-07T04:05:35.657Z,74.10
2023-01-07T04:08:06.668Z,74.10
2023-01-07T04:10:35.946Z,74.20
2023-01-07T04:13:08.573Z,74.10
2023-01-07T04:15:46.263Z,74.10
2023-01-07T04:18:29.636Z,74.20
2023-01-07T04:21:06.794Z,74.30
2023-01-07T04:23:57.843Z,74.40
2023-01-07T04:26:28.520Z,74.40
2023-01-07T04:28:59.714Z,74.40
2023-01-07T04:31:43.480Z,74.50
2023-01-07T04:34:13.703Z,74.60
2023-01-07T04:36:48.544Z,74.70
2023-01-07T04:39:22.064Z,74.80
2023-01-07T04:41:52.190Z,74.80
2023-01-07T04:44:20.400Z,74.90
2023-01-07T04:46:50.479Z,75.00
2023-01-07T04:49:22.357Z,75.00
2023-01-07T04:51:52.120Z,74.90
2023-01-07T04:54:25.180Z,74.90
2023-01-07T04:56:56.460Z,75.00
2023-01-07T04:59:27.985Z,75.00
2023-01-07T05:01:56.588Z,75.00
2023-01-07T05:04:25.062Z,75.10
2023-01-07T05:06:56.777Z,75.20
2023-01-07T05:09:29.048Z,75.30
2023-01-07T05:11:57.358Z,75.40
2023-01-07T05:14:25.644Z,75.50
2023-01-07T05:16:55.602Z,75.60
2023-01-07T05:19:26.148Z,75.60
2023-01-07T05:22:04.280Z,75.60
2023-01-07T05:24:33.763Z,75.50
2023-01-07T05:27:04.114Z,75.60
2023-01-07T05:29:33.476Z,75.70
2023-01-07T05:32:04.757Z,75.80
2023-01-07T05:34:33.135Z,75.60
2023-01-07T05:37:04.593Z,75.20
2023-01-07T05:39:38.560Z,74.80
2023-01-07T05:42:06.771Z,74.90
2023-01-07T05:44:37.397Z,74.80
2023-01-07T05:47:08.757Z,74.60
2023-01-07T05:49:38.407Z,74.60
2023-01-07T05:52:06.630Z,74.60
2023-01-07T05:54:41.987Z,74.50
2023-01-07T05:57:11.806Z,74.50
2023-01-07T05:59:41.484Z,74.50
2023-01-07T06:02:15.347Z,74.50
2023-01-07T06:04:45.858Z,74.40
2023-01-07T06:07:16.704Z,74.60
2023-01-07T06:09:48.671Z,74.50
2023-01-07T06:12:19.159Z,74.50
2023-01-07T06:14:49.585Z,74.50
2023-01-07T06:17:20.068Z,74.50
2023-01-07T06:19:48.274Z,74.60
2023-01-07T06:22:16.766Z,74.60
2023-01-07T06:24:52.169Z,74.50
2023-01-07T06:27:23.165Z,74.40
2023-01-07T06:29:59.833Z,74.40
2023-01-07T06:32:28.434Z,74.50
2023-01-07T06:34:56.597Z,74.60
2023-01-07T06:37:25.814Z,74.70
2023-01-07T06:39:58.258Z,74.70
2023-01-07T06:42:30.862Z,74.60
2023-01-07T06:45:01.402Z,74.50
2023-01-07T06:47:37.212Z,74.70
2023-01-07T06:50:09.667Z,74.70
2023-01-07T06:52:41.760Z,74.60
2023-01-07T06:55:11.960Z,74.70
2023-01-07T06:57:43.535Z,74.80
2023-01-07T07:00:12.973Z,74.90
2023-01-07T07:02:41.485Z,75.00
2023-01-07T07:05:11.467Z,75.00
2023-01-07T07:07:40.935Z,75.20
2023-01-07T07:10:16.559Z,75.30
2023-01-07T07:12:47.080Z,75.20
2023-01-07T07:15:17.438Z,75.30
2023-01-07T07:17:47.207Z,75.10
2023-01-07T07:20:17.636Z,75.20
2023-01-07T07:22:49.652Z,75.30
2023-01-07T07:25:23.192Z,75.30
2023-01-07T07:27:52.089Z,75.40
2023-01-07T07:30:21.623Z,75.30
2023-01-07T07:33:13.106Z,75.60
2023-01-07T07:35:43.726Z,75.70
2023-01-07T07:38:14.270Z,75.60
2023-01-07T07:40:57.807Z,75.60
2023-01-07T07:43:25.953Z,75.70
2023-01-07T07:45:56.515Z,75.70
2023-01-07T07:48:28.469Z,75.50
2023-01-07T07:50:59.005Z,75.60
2023-01-07T07:53:29.795Z,75.60
2023-01-07T07:56:16.503Z,75.60
2023-01-07T07:58:48.404Z,75.60
2023-01-07T08:01:19.315Z,75.60
2023-01-07T08:03:50.279Z,75.70
2023-01-07T08:06:22.072Z,75.60
2023-01-07T08:08:51.631Z,75.60
2023-01-07T08:11:21.156Z,75.50
2023-01-07T08:13:52.927Z,75.50
2023-01-07T08:16:26.247Z,75.40
2023-01-07T08:18:55.288Z,75.50
2023-01-07T08:21:33.155Z,75.40
2023-01-07T08:24:01.392Z,75.60
2023-01-07T08:26:51.103Z,75.60
2023-01-07T08:29:19.692Z,75.50
2023-01-07T08:31:50.505Z,75.40
2023-01-07T08:34:18.918Z,75.40
2023-01-07T08:36:48.155Z,75.40
2023-01-07T08:39:18.804Z,75.20
2023-01-07T08:41:49.599Z,75.00
2023-01-07T08:44:23.977Z,74.90
2023-01-07T08:46:55.338Z,74.80
2023-01-07T08:49:26.702Z,74.60
2023-01-07T08:51:58.596Z,74.40
2023-01-07T08:54:28.403Z,74.20
2023-01-07T08:57:09.008Z,74.20
2023-01-07T08:59:49.969Z,74.00
2023-01-07T09:02:20.661Z,73.80
2023-01-07T09:04:50.503Z,73.50
2023-01-07T09:07:33.299Z,73.40
2023-01-07T09:10:01.540Z,73.20
2023-01-07T09:12:49.634Z,73.00
2023-01-07T09:15:19.474Z,72.80
2023-01-07T09:17:48.893Z,72.50
2023-01-07T09:20:31.969Z,72.40
2023-01-07T09:23:01.633Z,72.20
2023-01-07T09:25:29.873Z,72.20
2023-01-07T09:27:59.601Z,72.00
2023-01-07T09:30:31.003Z,71.90
2023-01-07T09:32:59.226Z,71.80
2023-01-07T09:35:29.751Z,71.80
2023-01-07T09:38:00.343Z,71.70
2023-01-07T09:40:30.920Z,71.50
2023-01-07T09:43:10.928Z,71.60
2023-01-07T09:45:49.526Z,71.50
2023-01-07T09:48:30.023Z,71.30
2023-01-07T09:51:05.759Z,71.30
2023-01-07T09:53:38.510Z,71.00
2023-01-07T09:56:15.297Z,70.70
2023-01-07T09:58:49.764Z,70.50
2023-01-07T10:01:28.076Z,70.20
2023-01-07T10:04:12.236Z,70.30
2023-01-07T10:06:49.043Z,70.20
2023-01-07T10:09:32.541Z,69.80
2023-01-07T10:12:13.988Z,69.60
2023-01-07T10:15:06.321Z,69.60
2023-01-07T10:17:49.986Z,69.40
2023-01-07T10:20:26.975Z,69.10
2023-01-07T10:23:06.441Z,69.10
2023-01-07T10:25:43.676Z,68.90
2023-01-07T10:28:20.939Z,68.90
2023-01-07T10:30:54.329Z,69.00
2023-01-07T10:33:29.239Z,68.80
2023-01-07T10:36:08.756Z,68.50
2023-01-07T10:38:43.962Z,68.60
2023-01-07T10:41:23.180Z,68.40
2023-01-07T10:44:12.207Z,68.10
2023-01-07T10:46:52.279Z,68.10
2023-01-07T10:49:44.318Z,67.90
2023-01-07T10:52:29.804Z,67.90
2023-01-07T10:55:30.067Z,67.80
2023-01-07T10:57:59.456Z,67.90
2023-01-07T11:00:28.786Z,67.60
2023-01-07T11:03:05.470Z,67.60
2023-01-07T11:05:39.677Z,67.40
2023-01-07T11:08:17.314Z,66.90
2023-01-07T11:10:45.723Z,66.90
2023-01-07T11:13:17.497Z,66.90
2023-01-07T11:15:53.878Z,67.00
2023-01-07T11:18:48.132Z,66.70
2023-01-07T11:21:44.229Z,66.30
2023-01-07T11:24:33.580Z,66.10
2023-01-07T11:27:06.987Z,66.00
2023-01-07T11:29:45.177Z,65.80
2023-01-07T11:32:23.409Z,65.50
2023-01-07T11:35:05.932Z,65.40
2023-01-07T11:37:40.471Z,65.20
2023-01-07T11:40:38.951Z,65.30
2023-01-07T11:43:23.690Z,65.10
2023-01-07T11:46:19.516Z,64.70
2023-01-07T11:48:52.935Z,64.80
2023-01-07T11:51:47.866Z,64.20
2023-01-07T11:54:23.435Z,64.10
2023-01-07T11:57:02.844Z,64.00
2023-01-07T11:59:34.661Z,62.70
2023-01-07T12:02:05.534Z,61.20
2023-01-07T12:04:40.812Z,60.80
2023-01-07T12:07:32.162Z,60.70
2023-01-07T12:10:00.369Z,60.10
2023-01-07T12:12:36.757Z,59.40
2023-01-07T12:15:19.667Z,58.10
2023-01-07T12:17:54.530Z,58.00
2023-01-07T12:20:44.819Z,56.70
2023-01-07T12:23:37.440Z,56.90
2023-01-07T12:26:20.421Z,57.30
2023-01-07T12:29:13.280Z,56.10
2023-01-07T12:31:55.102Z,56.70
2023-01-07T12:34:39.491Z,55.00
2023-01-07T12:37:14.812Z,55.70
2023-01-07T12:39:46.735Z,55.60
2023-01-07T12:42:19.920Z,55.50
2023-01-07T12:44:52.255Z,54.90
2023-01-07T12:47:31.618Z,54.90
2023-01-07T12:50:05.904Z,54.70
2023-01-07T12:52:41.012Z,53.70
2023-01-07T12:55:21.031Z,54.00
2023-01-07T12:58:03.199Z,53.20
2023-01-07T13:00:36.552Z,53.40
2023-01-07T13:03:11.815Z,53.30
2023-01-07T13:05:46.396Z,53.30
2023-01-07T13:08:23.666Z,53.20
2023-01-07T13:10:58.958Z,52.70
2023-01-07T13:13:32.933Z,53.00
2023-01-07T13:16:01.328Z,52.70
2023-01-07T13:18:31.007Z,52.20
2023-01-07T13:21:07.890Z,51.20
2023-01-07T13:24:01.739Z,51.10
2023-01-07T13:26:40.698Z,52.00
2023-01-07T13:29:34.150Z,51.80
2023-01-07T13:32:24.731Z,51.30
2023-01-07T13:35:16.587Z,51.30
2023-01-07T13:38:00.986Z,51.00
2023-01-07T13:40:46.218Z,51.30
2023-01-07T13:43:27.517Z,51.20
2023-01-07T13:46:00.640Z,50.50
2023-01-07T13:48:30.028Z,50.40
2023-01-07T13:51:01.062Z,50.60
2023-01-07T13:53:45.899Z,49.50
2023-01-07T13:56:43.861Z,49.20
2023-01-07T13:59:47.797Z,49.30
2023-01-07T14:02:22.183Z,49.50
2023-01-07T14:05:06.481Z,49.20
2023-01-07T14:07:48.418Z,50.30
2023-01-07T14:10:28.028Z,49.50
2023-01-07T14:13:17.003Z,49.70
2023-01-07T14:16:12.604Z,50.00
2023-01-07T14:19:07.281Z,50.30
2023-01-07T14:21:52.526Z,50.80
2023-01-07T14:24:47.072Z,51.00
2023-01-07T14:27:43.717Z,51.30
2023-01-07T14:30:22.393Z,50.60
2023-01-07T14:33:02.696Z,50.40
2023-01-07T14:35:36.916Z,49.90
2023-01-07T14:38:35.886Z,50.40
2023-01-07T14:41:09.559Z,50.70
2023-01-07T14:44:05.227Z,50.90
2023-01-07T14:46:52.060Z,50.50
2023-01-07T14:50:03.407Z,50.50
2023-01-07T14:53:09.963Z,50.80
2023-01-07T14:56:10.786Z,51.10
2023-01-07T14:59:14.808Z,51.40
2023-01-07T15:02:04.100Z,51.70
2023-01-07T15:05:10.407Z,51.80
2023-01-07T15:07:43.209Z,52.00
2023-01-07T15:10:39.078Z,52.40
2023-01-07T15:13:30.493Z,52.60
2023-01-07T15:16:02.537Z,52.90
2023-01-07T15:18:34.071Z,53.30
2023-01-07T15:21:16.296Z,53.50
2023-01-07T15:24:01.004Z,53.90
2023-01-07T15:26:43.657Z,54.30
2023-01-07T15:29:22.043Z,54.40
2023-01-07T15:32:00.520Z,54.70
2023-01-07T15:34:34.413Z,55.00
2023-01-07T15:37:07.241Z,55.50
2023-01-07T15:39:41.370Z,55.80
2023-01-07T15:42:18.134Z,55.80
2023-01-07T15:44:51.555Z,56.30
2023-01-07T15:47:38.278Z,56.70
2023-01-07T15:50:29.360Z,56.90
2023-01-07T15:53:00.667Z,57.10
2023-01-07T15:55:32.505Z,57.40
2023-01-07T15:58:09.235Z,57.70
2023-01-07T16:00:38.346Z,58.10
2023-01-07T16:03:08.172Z,58.50
2023-01-07T16:05:40.520Z,58.70
2023-01-07T16:08:19.199Z,59.00
2023-01-07T16:11:01.004Z,59.20
2023-01-07T16:13:32.897Z,59.30
2023-01-07T16:16:06.569Z,59.80
2023-01-07T16:18:36.264Z,59.90
2023-01-07T16:21:08.637Z,60.30
2023-01-07T16:23:39.905Z,60.50
2023-01-07T16:26:11.640Z,60.80
2023-01-07T16:28:45.295Z,61.00
2023-01-07T16:31:17.144Z,61.10
2023-01-07T16:33:48.775Z,61.20
2023-01-07T16:36:21.099Z,61.30
2023-01-07T16:38:54.937Z,61.50
2023-01-07T16:41:26.896Z,61.80
2023-01-07T16:43:58.161Z,62.10
2023-01-07T16:46:29.458Z,62.30
2023-01-07T16:49:23.135Z,62.50
2023-01-07T16:51:56.192Z,62.80
2023-01-07T16:54:37.622Z,63.00
2023-01-07T16:57:08.993Z,63.00
2023-01-07T16:59:43.749Z,63.10
2023-01-07T17:02:31.666Z,63.40
2023-01-07T17:05:16.858Z,63.50
2023-01-07T17:07:50.390Z,63.90
2023-01-07T17:10:28.863Z,64.00
2023-01-07T17:13:01.035Z,63.90
2023-01-07T17:15:39.867Z,64.00
2023-01-07T17:18:28.940Z,64.20
2023-01-07T17:21:00.424Z,64.10
2023-01-07T17:23:46.294Z,64.30
2023-01-07T17:26:22.290Z,64.30
2023-01-07T17:28:54.333Z,64.40
2023-01-07T17:31:25.592Z,64.50
2023-01-07T17:33:56.387Z,64.40
2023-01-07T17:36:27.049Z,64.70
2023-01-07T17:38:56.508Z,64.70
2023-01-07T17:41:43.491Z,64.70
2023-01-07T17:44:14.973Z,64.80
2023-01-07T17:46:45.567Z,64.80
2023-01-07T17:49:15.335Z,65.00
2023-01-07T17:51:47.457Z,65.00
2023-01-07T17:54:21.873Z,65.00
2023-01-07T17:56:51.515Z,65.10
2023-01-07T17:59:22.439Z,65.20
2023-01-07T18:01:55.476Z,65.20
2023-01-07T18:04:24.848Z,65.50
2023-01-07T18:06:54.534Z,65.40
2023-01-07T18:09:24.209Z,65.70
2023-01-07T18:12:10.866Z,65.70
2023-01-07T18:14:40.633Z,65.90
2023-01-07T18:17:11.225Z,66.00
2023-01-07T18:19:40.717Z,66.30
2023-01-07T18:22:10.137Z,66.10
2023-01-07T18:24:39.367Z,66.20
2023-01-07T18:27:08.720Z,66.20
2023-01-07T18:29:38.109Z,66.20
2023-01-07T18:32:07.841Z,66.20
2023-01-07T18:34:38.833Z,66.30
2023-01-07T18:37:08.387Z,66.30
2023-01-07T18:39:37.753Z,66.30
2023-01-07T18:42:07.691Z,66.30
2023-01-07T18:44:37.433Z,66.20
2023-01-07T18:47:07.672Z,66.30
2023-01-07T18:49:38.673Z,66.40
2023-01-07T18:52:07.760Z,66.40
2023-01-07T18:54:38.767Z,66.40
2023-01-07T18:57:10.345Z,66.40
2023-01-07T18:59:40.387Z,66.40
2023-01-07T19:02:13.942Z,66.70
2023-01-07T19:04:45.111Z,66.70
2023-01-07T19:07:14.200Z,66.60
2023-01-07T19:09:43.083Z,66.60
2023-01-07T19:12:13.300Z,66.80
2023-01-07T19:14:43.114Z,66.90
2023-01-07T19:17:12.924Z,66.90
2023-01-07T19:19:48.350Z,67.00
2023-01-07T19:22:20.731Z,67.00
2023-01-07T19:24:49.971Z,67.10
2023-01-07T19:27:19.669Z,67.10
2023-01-07T19:29:49.200Z,67.30
2023-01-07T19:32:18.794Z,67.30
2023-01-07T19:34:49.923Z,67.50
2023-01-07T19:37:22.611Z,67.40
2023-01-07T19:39:51.375Z,67.60
2023-01-07T19:42:20.560Z,67.60
2023-01-07T19:44:50.064Z,67.80
2023-01-07T19:47:19.947Z,67.80
2023-01-07T19:49:48.778Z,67.80
2023-01-07T19:52:20.047Z,67.80
2023-01-07T19:54:49.131Z,68.00
2023-01-07T19:57:19.078Z,68.00
2023-01-07T19:59:48.501Z,67.90
2023-01-07T20:02:18.286Z,68.00
2023-01-07T20:04:47.657Z,68.00
2023-01-07T20:07:17.091Z,68.20
2023-01-07T20:09:48.260Z,68.10
2023-01-07T20:12:17.527Z,68.20
2023-01-07T20:14:46.844Z,68.30
2023-01-07T20:17:16.420Z,68.40
2023-01-07T20:19:46.294Z,68.50
2023-01-07T20:22:15.883Z,68.60
2023-01-07T20:24:47.206Z,68.60
2023-01-07T20:27:18.156Z,68.60
2023-01-07T20:29:47.761Z,68.70
2023-01-07T20:32:19.633Z,68.80
2023-01-07T20:34:49.447Z,68.70
2023-01-07T20:37:18.697Z,68.80
2023-01-07T20:39:47.999Z,68.70
2023-01-07T20:42:18.870Z,68.70
2023-01-07T20:44:48.525Z,68.60
2023-01-07T20:47:17.734Z,68.50
2023-01-07T20:49:46.845Z,68.60
2023-01-07T20:52:16.275Z,68.60
2023-01-07T20:54:47.255Z,68.40
2023-01-07T20:57:18.653Z,68.40
2023-01-07T20:59:47.824Z,68.30
2023-01-07T21:02:18.636Z,68.50
2023-01-07T21:04:49.140Z,68.70
2023-01-07T21:07:18.564Z,68.60
2023-01-07T21:09:48.415Z,68.50
2023-01-07T21:12:21.818Z,68.50
2023-01-07T21:14:51.199Z,68.30
2023-01-07T21:17:20.499Z,68.50
2023-01-07T21:19:49.909Z,68.50
2023-01-07T21:22:19.425Z,68.50
2023-01-07T21:24:48.642Z,68.50
2023-01-07T21:27:20.037Z,68.70
2023-01-07T21:29:51.490Z,68.80
2023-01-07T21:32:20.887Z,68.70
2023-01-07T21:34:50.267Z,68.80
2023-01-07T21:37:19.674Z,69.00
2023-01-07T21:39:50.050Z,68.70
2023-01-07T21:42:21.362Z,68.70
2023-01-07T21:44:50.541Z,68.50
2023-01-07T21:47:19.713Z,68.70
2023-01-07T21:49:50.267Z,68.70
2023-01-07T21:52:20.096Z,68.70
2023-01-07T21:54:52.389Z,68.70
2023-01-07T21:57:23.263Z,68.60
2023-01-07T21:59:52.844Z,68.60
2023-01-07T22:02:22.255Z,68.50
2023-01-07T22:04:51.901Z,68.70
2023-01-07T22:07:21.926Z,68.70
2023-01-07T22:09:50.727Z,68.80
2023-01-07T22:12:20.222Z,68.60
2023-01-07T22:14:49.733Z,68.80
2023-01-07T22:17:19.025Z,68.80
2023-01-07T22:19:47.211Z,68.70
2023-01-07T22:22:16.705Z,68.70
2023-01-07T22:24:44.864Z,68.90
2023-01-07T22:27:12.984Z,68.80
2023-01-07T22:29:41.365Z,68.90
2023-01-07T22:32:10.943Z,68.90
2023-01-07T22:34:39.105Z,69.00
2023-01-07T22:37:12.103Z,68.90
2023-01-07T22:39:44.262Z,68.90
2023-01-07T22:42:18.306Z,69.10
2023-01-07T22:44:50.443Z,69.10
2023-01-07T22:47:24.654Z,69.20
2023-01-07T22:49:54.505Z,69.20
2023-01-07T22:52:23.252Z,69.30
2023-01-07T22:54:51.868Z,69.40
2023-01-07T22:57:21.075Z,69.40
2023-01-07T22:59:49.213Z,69.20
2023-01-07T23:02:17.820Z,69.20
2023-01-07T23:04:47.480Z,69.30
2023-01-07T23:07:15.639Z,69.30
2023-01-07T23:09:43.784Z,69.40
2023-01-07T23:12:13.585Z,69.60
2023-01-07T23:14:41.811Z,69.50
2023-01-07T23:17:11.128Z,69.60
2023-01-07T23:19:39.347Z,69.60
2023-01-07T23:22:08.936Z,69.50
2023-01-07T23:24:37.539Z,69.70
2023-01-07T23:27:06.164Z,69.70
2023-01-07T23:29:35.683Z,69.70
2023-01-07T23:32:03.906Z,69.70
2023-01-07T23:34:32.126Z,70.00
2023-01-07T23:37:00.336Z,69.90
2023-01-07T23:39:30.672Z,70.10
2023-01-07T23:41:58.854Z,70.00
2023-01-07T23:44:27.156Z,70.10
2023-01-07T23:46:55.296Z,70.10
2023-01-07T23:49:23.490Z,69.90
2023-01-07T23:51:51.765Z,70.10
2023-01-07T23:54:20.004Z,70.10
2023-01-07T23:56:50.714Z,70.00
2023-01-07T23:59:19.448Z,70.20
